Wednesday, February 22, 2017, 12:28 PM EST

KSHD, Staunton / Shenandoah

Location: Weyers Cave, VA, United States Lat: 38.267
Local Time: 12:28 PM EST (17:28 GMT) Lon: -78.9
Time Zone: US/Eastern Elev: 1200 ft

Show me the last for .
Show Decoded

2017-02-22 12:15 METAR KSHD 221715Z AUTO 00000KT 10SM BKN065 BKN080 13/09 A2998 RMK AO2 T01320090
                 =
2017-02-22 11:55 METAR KSHD 221655Z AUTO 20003KT 10SM OVC065 12/09 A3000 RMK AO2 T01210087 =
2017-02-22 11:35 METAR KSHD 221635Z AUTO 00000KT 10SM OVC065 12/08 A3001 RMK AO2 T01150084 =
2017-02-22 11:15 METAR KSHD 221615Z AUTO 00000KT 10SM OVC075 11/08 A3001 RMK AO2 T01130084 =
2017-02-22 10:55 METAR KSHD 221555Z AUTO 00000KT 10SM OVC075 11/08 A3002 RMK AO2 T01100083 =
2017-02-22 10:35 METAR KSHD 221535Z AUTO 22003KT 10SM OVC075 11/08 A3003 RMK AO2 T01070082 =
2017-02-22 10:15 METAR KSHD 221515Z AUTO 23004KT 10SM OVC075 11/08 A3003 RMK AO2 T01060082 =
2017-02-22 09:55 METAR KSHD 221455Z AUTO 22003KT 10SM SCT060 BKN075 OVC085 10/08 A3003 RMK AO2
                 60001 T01020081 =
2017-02-22 09:35 METAR KSHD 221435Z AUTO 20007KT 10SM OVC060 10/08 A3003 RMK AO2 T00980078 =
2017-02-22 09:15 METAR KSHD 221415Z AUTO 19004KT 10SM OVC060 09/08 A3003 RMK AO2 T00920075 =
2017-02-22 08:55 METAR KSHD 221355Z AUTO 20003KT 10SM DZ OVC060 09/07 A3004 RMK AO2 T00870070 =
2017-02-22 08:35 METAR KSHD 221335Z AUTO 19008KT 10SM OVC060 09/07 A3004 RMK AO2 T00850068 =
2017-02-22 08:15 METAR KSHD 221315Z AUTO 19008KT 10SM OVC060 09/07 A3005 RMK AO2 T00860066 =
2017-02-22 07:55 METAR KSHD 221255Z AUTO 18008KT 10SM -DZ SCT050 OVC060 08/07 A3005 RMK AO2 P0001
                 T00820066 =
2017-02-22 07:35 METAR KSHD 221235Z AUTO 17006KT 10SM -RA OVC050 08/07 A3005 RMK AO2 P0001
                 T00800065 =
2017-02-22 07:15 METAR KSHD 221215Z AUTO 16004KT 10SM -RA SCT050 OVC065 08/06 A3005 RMK AO2 P0001
                 T00780064 =
2017-02-22 06:55 METAR KSHD 221155Z AUTO 16003KT 10SM -RA OVC065 08/06 A3005 RMK AO2 P0003 60004
                 70004 T00800062 10095 20075 =
2017-02-22 06:35 METAR KSHD 221135Z AUTO 17005KT 10SM RA OVC065 08/07 A3005 RMK AO2 P0001
                 T00750065 =
2017-02-22 06:15 METAR KSHD 221115Z AUTO 00000KT 10SM -RA BKN075 OVC085 09/05 A3005 RMK AO2
                 T00900053 =
2017-02-22 05:55 METAR KSHD 221055Z AUTO 00000KT 10SM -RA BKN075 OVC085 09/05 A3004 RMK AO2
                 T00860052 =
2017-02-22 05:35 METAR KSHD 221035Z AUTO 17004KT 10SM SCT080 OVC095 08/06 A3003 RMK AO2 T00830057
                 =
2017-02-22 05:15 METAR KSHD 221015Z AUTO 00000KT 10SM -DZ OVC085 08/06 A3003 RMK AO2 T00830058 =
2017-02-22 04:55 METAR KSHD 220955Z AUTO 00000KT 10SM -DZ OVC085 08/06 A3003 RMK AO2 T00840058 =
2017-02-22 04:35 METAR KSHD 220935Z AUTO 16003KT 10SM -RA OVC085 08/06 A3002 RMK AO2 T00800060 =
2017-02-22 04:15 METAR KSHD 220915Z AUTO 00000KT 10SM DZ OVC085 08/06 A3003 RMK AO2 T00800060 =
2017-02-22 03:55 METAR KSHD 220855Z AUTO 15004KT 10SM -RA OVC085 08/06 A3002 RMK AO2 P0001 60001
                 T00780060 =
2017-02-22 03:35 METAR KSHD 220835Z AUTO 00000KT 10SM OVC085 08/06 A3003 RMK AO2 P0001 T00820060
                 =
2017-02-22 03:15 METAR KSHD 220815Z AUTO 19003KT 10SM -DZ OVC085 08/06 A3003 RMK AO2 P0001
                 T00820060 =
2017-02-22 02:55 METAR KSHD 220755Z AUTO 17005KT 10SM RA OVC075 08/06 A3003 RMK AO2 T00830056 =
2017-02-22 02:35 METAR KSHD 220735Z AUTO 19006KT 10SM -RA OVC075 09/05 A3004 RMK AO2 T00870051 =
2017-02-22 02:15 METAR KSHD 220715Z AUTO 18006KT 10SM -RA OVC075 08/05 A3005 RMK AO2 T00800052 =
2017-02-22 01:55 METAR KSHD 220655Z AUTO 00000KT 10SM -RA SCT050 SCT065 OVC080 09/04 A3005 RMK
                 AO2 T00920037 =
2017-02-22 01:35 METAR KSHD 220635Z AUTO 18004KT 10SM SCT046 SCT070 OVC090 10/03 A3006 RMK AO2
                 T00950032 =
2017-02-22 01:15 METAR KSHD 220615Z AUTO 22003KT 10SM SCT075 OVC100 09/03 A3007 RMK AO2 T00900031
                 =
2017-02-22 00:55 METAR KSHD 220555Z AUTO 22004KT 10SM OVC100 09/03 A3008 RMK AO2 T00880030 10111
                 20076 401460005 =
2017-02-22 00:35 METAR KSHD 220535Z AUTO 21003KT 10SM OVC100 10/03 A3008 RMK AO2 T00960027 =
2017-02-22 00:15 METAR KSHD 220515Z AUTO 19004KT 10SM OVC110 09/03 A3009 RMK AO2 T00920028 =
2017-02-21 23:55 METAR KSHD 220455Z AUTO 22003KT 10SM OVC110 09/03 A3009 RMK AO2 T00940027 =
2017-02-21 23:35 METAR KSHD 220435Z AUTO 16004KT 10SM OVC120 10/03 A3010 RMK AO2 T00950025 =
2017-02-21 23:15 METAR KSHD 220415Z AUTO 17005KT 10SM BKN120 09/03 A3010 RMK AO2 T00880025 =
2017-02-21 22:55 METAR KSHD 220355Z AUTO 00000KT 10SM CLR 08/03 A3011 RMK AO2 T00820026 =
2017-02-21 22:35 METAR KSHD 220335Z AUTO 00000KT 10SM CLR 08/03 A3012 RMK AO2 T00820025 =
2017-02-21 22:15 METAR KSHD 220315Z AUTO 27004KT 10SM SCT120 09/02 A3012 RMK AO2 T00900022 =
2017-02-21 21:55 METAR KSHD 220255Z AUTO 00000KT 10SM CLR 09/02 A3011 RMK AO2 T00860022 =
2017-02-21 21:35 METAR KSHD 220235Z AUTO 22003KT 10SM CLR 08/02 A3013 RMK AO2 T00830021 =
2017-02-21 21:15 METAR KSHD 220215Z AUTO 00000KT 10SM CLR 09/02 A3013 RMK AO2 T00850020 =
2017-02-21 20:55 METAR KSHD 220155Z AUTO 00000KT 10SM CLR 09/02 A3013 RMK AO2 T00890020 =
2017-02-21 20:35 METAR KSHD 220135Z AUTO 18004KT 10SM CLR 10/02 A3013 RMK AO2 T00950017 =
2017-02-21 20:15 METAR KSHD 220115Z AUTO 22003KT 10SM CLR 09/02 A3014 RMK AO2 T00850016 =
2017-02-21 19:55 METAR KSHD 220055Z AUTO 22003KT 10SM CLR 09/01 A3014 RMK AO2 T00890014 =
2017-02-21 19:35 METAR KSHD 220035Z AUTO 19004KT 10SM CLR 11/02 A3014 RMK AO2 T01090015 =
2017-02-21 19:15 METAR KSHD 220015Z AUTO 18005KT 10SM CLR 11/02 A3014 RMK AO2 T01110015 =
2017-02-21 18:55 METAR KSHD 212355Z AUTO 18005KT 10SM CLR 11/01 A3014 RMK AO2 T01090012 10146
                 20109 =
2017-02-21 18:35 METAR KSHD 212335Z AUTO 17004KT 10SM CLR 11/01 A3014 RMK AO2 T01110012 =
2017-02-21 18:15 METAR KSHD 212315Z AUTO 17006KT 10SM CLR 11/01 A3014 RMK AO2 T01110012 =
2017-02-21 17:55 METAR KSHD 212255Z AUTO 17006KT 10SM CLR 12/01 A3014 RMK AO2 T01170012 =
2017-02-21 17:35 METAR KSHD 212235Z AUTO 18008KT 10SM CLR 12/02 A3013 RMK AO2 T01200016 =
2017-02-21 17:15 METAR KSHD 212215Z AUTO 18008KT 10SM CLR 13/02 A3013 RMK AO2 T01260016 =
2017-02-21 16:55 METAR KSHD 212155Z AUTO 17009KT 10SM CLR 14/02 A3012 RMK AO2 T01350018 =
2017-02-21 16:35 METAR KSHD 212135Z AUTO RMK TEMPORAIRILY INOPERATIVE =
2017-02-21 16:15 METAR KSHD 212115Z AUTO 15009KT 10SM CLR 15/02 A3013 RMK AO2 T01450017 =
2017-02-21 15:55 METAR KSHD 212055Z AUTO 18009KT 10SM CLR 14/02 A3014 RMK AO2 T01430015 =
2017-02-21 15:35 METAR KSHD 212035Z AUTO 15010KT 10SM CLR 14/01 A3013 RMK AO2 T01430011 =
2017-02-21 15:15 METAR KSHD 212015Z AUTO 17008KT 10SM CLR 14/01 A3014 RMK AO2 T01380007 =
2017-02-21 14:55 METAR KSHD 211955Z AUTO 16006KT 10SM CLR 14/01 A3014 RMK AO2 T01400006 =
2017-02-21 14:35 METAR KSHD 211935Z AUTO 18008KT 10SM CLR 14/00 A3015 RMK AO2 T01360003 =
2017-02-21 14:15 METAR KSHD 211915Z AUTO 18007KT 10SM CLR 14/00 A3015 RMK AO2 T01380004 =
2017-02-21 13:55 METAR KSHD 211855Z AUTO 16006KT 10SM CLR 13/00 A3016 RMK AO2 T01330001 =
2017-02-21 13:35 METAR KSHD 211835Z AUTO 14010G14KT 10SM CLR 13/00 A3018 RMK AO2 T01310000 =
2017-02-21 13:15 METAR KSHD 211815Z AUTO 17009G15KT 10SM CLR 12/00 A3019 RMK AO2 T01240000 =
2017-02-21 12:55 METAR KSHD 211755Z AUTO 17009KT 10SM CLR 12/00 A3020 RMK AO2 T01220000 10125
                 20009 =
2017-02-21 12:35 METAR KSHD 211735Z AUTO 16008KT 10SM CLR 12/00 A3021 RMK AO2 T01200000 =

Support USWX by starting your Amazon purchase here.